Aviation Digital Data Service (ADDS)

Output produced by METARs form (0341 UTC 26 June 2019)
found at http://www.aviationweather.gov/metar/data/
 
METAR text: RPMR 260300Z 14004KT 9999 FEW018 OVC250 30/24 Q1013 NOSIG RMK A2991
Conditions at: RPMR (GEN SANTOS , PH) observed 0300 UTC 26 June 2019
Temperature: 30.0°C (86°F)
Dewpoint: 24.0°C (75°F) [RH = 70%]
Pressure (altimeter): 29.91 inches Hg (1013.0 mb)
Winds: from the SE (140 degrees) at 5 MPH (4 knots; 2.1 m/s)
Visibility: 6 or more miles (10+ km)
Ceiling: 25000 feet AGL
Clouds: few clouds at 1800 feet AGL
overcast cloud deck at 25000 feet AGL
Weather: no significant weather observed at this time

METAR text: RPMR 260200Z 09004KT 9999 FEW018 BKN250 29/24 Q1013 NOSIG RMK A2991
Conditions at: RPMR (GEN SANTOS , PH) observed 0200 UTC 26 June 2019
Temperature: 29.0°C (84°F)
Dewpoint: 24.0°C (75°F) [RH = 74%]
Pressure (altimeter): 29.91 inches Hg (1013.0 mb)
Winds: from the E (90 degrees) at 5 MPH (4 knots; 2.1 m/s)
Visibility: 6 or more miles (10+ km)
Ceiling: 25000 feet AGL
Clouds: few clouds at 1800 feet AGL
broken clouds at 25000 feet AGL
Weather: no significant weather observed at this time

METAR text: RPMR 260100Z 03002KT 9999 FEW018 BKN250 28/25 Q1013 NOSIG RMK A2991
Conditions at: RPMR (GEN SANTOS , PH) observed 0100 UTC 26 June 2019
Temperature: 28.0°C (82°F)
Dewpoint: 25.0°C (77°F) [RH = 84%]
Pressure (altimeter): 29.91 inches Hg (1013.0 mb)
Winds: from the NNE (30 degrees) at 2 MPH (2 knots; 1.0 m/s)
Visibility: 6 or more miles (10+ km)
Ceiling: 25000 feet AGL
Clouds: few clouds at 1800 feet AGL
broken clouds at 25000 feet AGL
Weather: no significant weather observed at this time

METAR text: RPMR 260000Z 00000KT 9999 FEW018 BKN250 27/24 Q1013 NOSIG RMK A2991
Conditions at: RPMR (GEN SANTOS , PH) observed 0000 UTC 26 June 2019
Temperature: 27.0°C (81°F)
Dewpoint: 24.0°C (75°F) [RH = 84%]
Pressure (altimeter): 29.91 inches Hg (1013.0 mb)
Winds: calm
Visibility: 6 or more miles (10+ km)
Ceiling: 25000 feet AGL
Clouds: few clouds at 1800 feet AGL
broken clouds at 25000 feet AGL
Weather: no significant weather observed at this time

METAR text: RPMR 250900Z 24004KT 9999 VCSH FEW018CB SCT080 BKN250 29/23 Q1011 NOSIG RMK A2985 CB NW
Conditions at: RPMR (GEN SANTOS , PH) observed 0900 UTC 25 June 2019
Temperature: 29.0°C (84°F)
Dewpoint: 23.0°C (73°F) [RH = 70%]
Pressure (altimeter): 29.85 inches Hg (1011.0 mb)
Winds: from the WSW (240 degrees) at 5 MPH (4 knots; 2.1 m/s)
Visibility: 6 or more miles (10+ km)
Ceiling: 25000 feet AGL
Clouds: few clouds at 1800 feet AGL
scattered clouds at 8000 feet AGL
broken clouds at 25000 feet AGL
Weather: VCSH  (showers in vicinity)

METAR text: RPMR 250800Z 18006KT 9999 FEW018CB SCT080 BKN250 30/24 Q1010 NOSIG RMK A2985 CB NW
Conditions at: RPMR (GEN SANTOS , PH) observed 0800 UTC 25 June 2019
Temperature: 30.0°C (86°F)
Dewpoint: 24.0°C (75°F) [RH = 70%]
Pressure (altimeter): 29.82 inches Hg (1010.0 mb)
Winds: from the S (180 degrees) at 7 MPH (6 knots; 3.1 m/s)
Visibility: 6 or more miles (10+ km)
Ceiling: 25000 feet AGL
Clouds: few clouds at 1800 feet AGL
scattered clouds at 8000 feet AGL
broken clouds at 25000 feet AGL
Weather: no significant weather observed at this time

METAR text: RPMR 250700Z 16006KT 9999 FEW018 SCT080 BKN250 31/24 Q1011 NOSIG RMK A2985
Conditions at: RPMR (GEN SANTOS , PH) observed 0700 UTC 25 June 2019
Temperature: 31.0°C (88°F)
Dewpoint: 24.0°C (75°F) [RH = 66%]
Pressure (altimeter): 29.85 inches Hg (1011.0 mb)
Winds: from the SSE (160 degrees) at 7 MPH (6 knots; 3.1 m/s)
Visibility: 6 or more miles (10+ km)
Ceiling: 25000 feet AGL
Clouds: few clouds at 1800 feet AGL
scattered clouds at 8000 feet AGL
broken clouds at 25000 feet AGL
Weather: no significant weather observed at this time

METAR text: RPMR 250600Z 16006KT 9999 FEW018CB SCT080 BKN250 32/24 Q1011 NOSIG RMK A2985 CB NE
Conditions at: RPMR (GEN SANTOS , PH) observed 0600 UTC 25 June 2019
Temperature: 32.0°C (90°F)
Dewpoint: 24.0°C (75°F) [RH = 63%]
Pressure (altimeter): 29.85 inches Hg (1011.0 mb)
Winds: from the SSE (160 degrees) at 7 MPH (6 knots; 3.1 m/s)
Visibility: 6 or more miles (10+ km)
Ceiling: 25000 feet AGL
Clouds: few clouds at 1800 feet AGL
scattered clouds at 8000 feet AGL
broken clouds at 25000 feet AGL
Weather: no significant weather observed at this time

METAR text: RPMR 250500Z 16006KT 9999 FEW018 BKN080 32/23 Q1012 NOSIG RMK A2988
Conditions at: RPMR (GEN SANTOS , PH) observed 0500 UTC 25 June 2019
Temperature: 32.0°C (90°F)
Dewpoint: 23.0°C (73°F) [RH = 59%]
Pressure (altimeter): 29.88 inches Hg (1012.0 mb)
Winds: from the SSE (160 degrees) at 7 MPH (6 knots; 3.1 m/s)
Visibility: 6 or more miles (10+ km)
Ceiling: 8000 feet AGL
Clouds: few clouds at 1800 feet AGL
broken clouds at 8000 feet AGL
Weather: no significant weather observed at this time

METAR text: RPMR 250400Z 13006KT 9999 FEW018 BKN080 31/23 Q1012 NOSIG RMK A2988
Conditions at: RPMR (GEN SANTOS , PH) observed 0400 UTC 25 June 2019
Temperature: 31.0°C (88°F)
Dewpoint: 23.0°C (73°F) [RH = 63%]
Pressure (altimeter): 29.88 inches Hg (1012.0 mb)
Winds: from the SE (130 degrees) at 7 MPH (6 knots; 3.1 m/s)
Visibility: 6 or more miles (10+ km)
Ceiling: 8000 feet AGL
Clouds: few clouds at 1800 feet AGL
broken clouds at 8000 feet AGL
Weather: no significant weather observed at this time

METAR text: RPMR 250300Z 09004KT 9999 FEW018 SCT080 31/24 Q1013 NOSIG RMK A2991
Conditions at: RPMR (GEN SANTOS , PH) observed 0300 UTC 25 June 2019
Temperature: 31.0°C (88°F)
Dewpoint: 24.0°C (75°F) [RH = 66%]
Pressure (altimeter): 29.91 inches Hg (1013.0 mb)
Winds: from the E (90 degrees) at 5 MPH (4 knots; 2.1 m/s)
Visibility: 6 or more miles (10+ km)
Ceiling: at least 12,000 feet AGL
Clouds: few clouds at 1800 feet AGL
scattered clouds at 8000 feet AGL
Weather: no significant weather observed at this time

METAR text: RPMR 250200Z 09004KT 9999 FEW018 BKN080 30/24 Q1013 NOSIG RMK A2991
Conditions at: RPMR (GEN SANTOS , PH) observed 0200 UTC 25 June 2019
Temperature: 30.0°C (86°F)
Dewpoint: 24.0°C (75°F) [RH = 70%]
Pressure (altimeter): 29.91 inches Hg (1013.0 mb)
Winds: from the E (90 degrees) at 5 MPH (4 knots; 2.1 m/s)
Visibility: 6 or more miles (10+ km)
Ceiling: 8000 feet AGL
Clouds: few clouds at 1800 feet AGL
broken clouds at 8000 feet AGL
Weather: no significant weather observed at this time

METAR text: RPMR 250100Z 08004KT 9999 FEW018 BKN080 29/24 Q1014 NOSIG RMK A2994
Conditions at: RPMR (GEN SANTOS , PH) observed 0100 UTC 25 June 2019
Temperature: 29.0°C (84°F)
Dewpoint: 24.0°C (75°F) [RH = 74%]
Pressure (altimeter): 29.94 inches Hg (1014.0 mb)
Winds: from the E (80 degrees) at 5 MPH (4 knots; 2.1 m/s)
Visibility: 6 or more miles (10+ km)
Ceiling: 8000 feet AGL
Clouds: few clouds at 1800 feet AGL
broken clouds at 8000 feet AGL
Weather: no significant weather observed at this time

METAR text: RPMR 250000Z 08002KT 9999 FEW018 BKN080 28/24 Q1014 NOSIG RMK A2994
Conditions at: RPMR (GEN SANTOS , PH) observed 0000 UTC 25 June 2019
Temperature: 28.0°C (82°F)
Dewpoint: 24.0°C (75°F) [RH = 79%]
Pressure (altimeter): 29.94 inches Hg (1014.0 mb)
Winds: from the E (80 degrees) at 2 MPH (2 knots; 1.0 m/s)
Visibility: 6 or more miles (10+ km)
Ceiling: 8000 feet AGL
Clouds: few clouds at 1800 feet AGL
broken clouds at 8000 feet AGL
Weather: no significant weather observed at this time

Forecast for: RPMR (GEN SANTOS , PH)
Text: TAF RPMR 252300Z 2600/2624 18005KT 9999 FEW018 SCT080 BKN250
Forecast period: 0000 UTC 26 June 2019 to 0000 UTC 27 June 2019
Forecast type: FROM: standard forecast or significant change
Winds: from the S (180 degrees) at 6 MPH (5 knots; 2.6 m/s)
Visibility: 6 or more miles 10+ km)
Ceiling: 25000 feet AGL
Clouds: few clouds at 1800 feet AGL
scattered clouds at 8000 feet AGL
broken clouds at 25000 feet AGL
Weather: no significant weather forecast for this period
Text: TEMPO 2606/2612 34008KT -TSRA FEW018CB BKN080
Forecast period: 0600 to 1200 UTC 26 June 2019
Forecast type: TEMPORARY: The following changes expected for less than half the time period
Winds: from the NNW (340 degrees) at 9 MPH (8 knots; 4.1 m/s)
Visibility: missing
Ceiling: 8000 feet AGL
Clouds: few clouds at 1800 feet AGL
broken clouds at 8000 feet AGL
Weather: -TSRA  (light rain associated with thunderstorm(s))